createdAt,value
2023-04-25T00:01:28.741Z,0.60
2023-04-25T00:06:31.239Z,1.05
2023-04-25T00:11:33.089Z,1.55
2023-04-25T00:16:36.152Z,2.47
2023-04-25T00:21:41.726Z,2.28
2023-04-25T00:26:43.642Z,0.75
2023-04-25T00:31:45.533Z,1.20
2023-04-25T00:36:47.377Z,1.23
2023-04-25T00:41:49.650Z,0.30
2023-04-25T00:46:51.959Z,0.50
2023-04-25T00:51:53.858Z,0.38
2023-04-25T00:56:56.039Z,1.33
2023-04-25T01:01:58.379Z,0.90
2023-04-25T01:07:00.733Z,2.33
2023-04-25T01:12:03.963Z,1.00
2023-04-25T01:17:06.527Z,1.23
2023-04-25T01:22:08.420Z,1.42
2023-04-25T01:27:11.728Z,1.80
2023-04-25T01:32:15.151Z,1.50
2023-04-25T01:37:18.604Z,1.13
2023-04-25T01:42:20.626Z,1.02
2023-04-25T01:47:22.457Z,0.70
2023-04-25T01:52:24.273Z,0.95
2023-04-25T01:57:26.207Z,1.75
2023-04-25T02:02:28.166Z,0.70
2023-04-25T02:07:30.098Z,1.17
2023-04-25T02:12:33.133Z,0.88
2023-04-25T02:17:35.077Z,0.82
2023-04-25T02:22:36.916Z,0.82
2023-04-25T02:27:38.758Z,1.08
2023-04-25T02:32:41.563Z,1.42
2023-04-25T02:37:43.604Z,1.20
2023-04-25T02:42:47.015Z,1.15
2023-04-25T02:47:48.851Z,1.15
2023-04-25T02:52:50.864Z,0.77
2023-04-25T02:57:52.768Z,2.38
2023-04-25T03:02:54.781Z,1.05
2023-04-25T03:07:56.692Z,0.70
2023-04-25T03:12:58.545Z,2.20
2023-04-25T03:18:00.359Z,1.42
2023-04-25T03:23:02.235Z,0.90
2023-04-25T03:28:04.018Z,0.93
2023-04-25T03:33:05.879Z,2.95
2023-04-25T03:38:07.753Z,0.75
2023-04-25T03:43:09.646Z,0.55
2023-04-25T03:48:11.600Z,3.28
2023-04-25T03:53:13.331Z,1.52
2023-04-25T03:58:15.190Z,1.10
2023-04-25T04:03:17.152Z,0.30
2023-04-25T04:08:19.136Z,1.77
2023-04-25T04:13:20.932Z,0.90
2023-04-25T04:18:23.052Z,0.57
2023-04-25T04:23:24.901Z,0.82
2023-04-25T04:28:27.927Z,0.73
2023-04-25T04:33:29.760Z,1.88
2023-04-25T04:38:31.702Z,0.52
2023-04-25T04:43:34.617Z,1.60
2023-04-25T04:48:36.485Z,1.23
2023-04-25T04:53:38.512Z,1.05
2023-04-25T04:58:40.474Z,2.15
2023-04-25T05:03:42.380Z,0.73
2023-04-25T05:08:44.216Z,0.57
2023-04-25T05:13:46.909Z,1.65
2023-04-25T05:18:49.059Z,0.80
2023-04-25T05:23:51.281Z,0.73
2023-04-25T05:28:53.305Z,0.52
2023-04-25T05:33:55.178Z,0.98
2023-04-25T05:38:57.127Z,2.70
2023-04-25T05:43:59.013Z,2.20
2023-04-25T05:49:00.986Z,0.38
2023-04-25T05:54:02.840Z,0.47
2023-04-25T05:59:04.677Z,1.08
2023-04-25T06:04:06.669Z,0.45
2023-04-25T06:09:08.646Z,1.60
2023-04-25T06:14:10.473Z,1.17
2023-04-25T06:19:12.312Z,1.67
2023-04-25T06:24:14.084Z,8.68
2023-04-25T06:29:15.854Z,1.90
2023-04-25T06:34:17.608Z,3.50
2023-04-25T06:39:21.360Z,3.03
2023-04-25T06:44:25.224Z,6.22
2023-04-25T06:49:26.952Z,5.00
2023-04-25T06:54:30.657Z,5.13
2023-04-25T06:59:32.536Z,5.07
2023-04-25T07:04:34.423Z,3.47
2023-04-25T07:09:36.521Z,12.32
2023-04-25T07:14:38.970Z,10.48
2023-04-25T07:19:41.565Z,2.30
2023-04-25T07:24:43.345Z,16.35
2023-04-25T07:29:45.376Z,14.75
2023-04-25T07:34:47.150Z,2.72
2023-04-25T07:39:48.943Z,9.18
2023-04-25T07:44:52.815Z,2.08
2023-04-25T07:49:54.633Z,1.00
2023-04-25T07:54:56.469Z,0.60
2023-04-25T07:59:58.260Z,3.80
2023-04-25T08:05:00.223Z,3.75
2023-04-25T08:10:02.249Z,1.80
2023-04-25T08:15:06.742Z,8.13
2023-04-25T08:20:08.775Z,11.75
2023-04-25T08:25:10.560Z,9.57
2023-04-25T08:30:12.733Z,3.60
2023-04-25T08:35:14.575Z,11.55
2023-04-25T08:40:17.251Z,4.68
2023-04-25T08:45:19.370Z,1.38
2023-04-25T08:50:23.537Z,2.72
2023-04-25T08:55:26.812Z,2.72
2023-04-25T09:00:29.180Z,2.85
2023-04-25T09:05:31.634Z,2.38
2023-04-25T09:10:33.833Z,3.50
2023-04-25T09:15:52.689Z,2.55
2023-04-25T09:21:13.027Z,2.38
2023-04-25T09:26:18.272Z,1.83
2023-04-25T09:31:27.336Z,2.70
2023-04-25T09:36:31.133Z,5.57
2023-04-25T09:41:33.930Z,2.40
2023-04-25T09:46:37.822Z,5.05
2023-04-25T09:51:39.689Z,3.15
2023-04-25T09:56:42.179Z,2.30
2023-04-25T10:01:44.689Z,2.70
2023-04-25T10:06:50.458Z,2.22
2023-04-25T10:11:53.200Z,2.25
2023-04-25T10:16:56.800Z,1.48
2023-04-25T10:22:12.977Z,2.72
2023-04-25T10:27:15.611Z,0.85
2023-04-25T10:32:17.596Z,3.90
2023-04-25T10:37:20.665Z,2.35
2023-04-25T10:42:22.550Z,1.77
2023-04-25T10:47:37.100Z,1.27
2023-04-25T10:52:41.908Z,2.47
2023-04-25T10:57:47.437Z,2.50
2023-04-25T11:02:53.642Z,1.13
2023-04-25T11:08:07.202Z,1.67
2023-04-25T11:13:09.894Z,0.95
2023-04-25T11:18:11.714Z,2.42
2023-04-25T11:23:13.601Z,1.58
2023-04-25T11:28:23.137Z,1.02
2023-04-25T11:33:26.380Z,0.57
2023-04-25T11:38:29.406Z,1.20
2023-04-25T11:43:31.573Z,0.90
2023-04-25T11:48:39.349Z,1.35
2023-04-25T11:53:45.955Z,0.70
2023-04-25T11:58:58.685Z,0.80
2023-04-25T12:04:15.176Z,0.82
2023-04-25T12:09:20.052Z,2.15
2023-04-25T12:14:29.961Z,0.77
2023-04-25T12:19:37.068Z,2.42
2023-04-25T12:24:39.487Z,0.70
2023-04-25T12:29:52.476Z,1.35
2023-04-25T12:34:54.351Z,0.77
2023-04-25T12:39:56.561Z,1.60
2023-04-25T12:44:58.396Z,0.65
2023-04-25T12:50:00.248Z,1.33
2023-04-25T12:55:02.046Z,2.38
2023-04-25T13:00:05.624Z,0.75
2023-04-25T13:05:07.774Z,1.65
2023-04-25T13:10:09.880Z,13.60
2023-04-25T13:15:12.584Z,37.30
2023-04-25T13:20:16.140Z,19.85
2023-04-25T13:25:17.964Z,28.75
2023-04-25T13:30:19.830Z,13.82
2023-04-25T13:35:21.781Z,24.35
2023-04-25T13:40:25.446Z,10.77
2023-04-25T13:45:27.580Z,7.90
2023-04-25T13:50:29.430Z,16.55
2023-04-25T13:55:31.374Z,14.73
2023-04-25T14:00:33.175Z,5.97
2023-04-25T14:05:39.552Z,15.57
2023-04-25T14:10:41.478Z,8.00
2023-04-25T14:15:43.391Z,17.95
2023-04-25T14:20:45.197Z,4.78
2023-04-25T14:25:46.991Z,3.88
2023-04-25T14:30:48.801Z,3.95
2023-04-25T14:35:50.733Z,5.00
2023-04-25T14:40:53.140Z,3.45
2023-04-25T14:45:58.184Z,12.20
2023-04-25T14:51:01.312Z,4.45
2023-04-25T14:56:03.077Z,4.68
2023-04-25T15:01:04.957Z,6.60
2023-04-25T15:06:07.583Z,4.00
2023-04-25T15:11:09.470Z,5.68
2023-04-25T15:16:12.679Z,5.47
2023-04-25T15:21:14.992Z,4.82
2023-04-25T15:26:17.180Z,3.55
2023-04-25T15:31:19.102Z,2.72
2023-04-25T15:36:21.924Z,3.58
2023-04-25T15:41:24.465Z,3.03
2023-04-25T15:46:27.068Z,8.88
2023-04-25T15:51:28.931Z,8.70
2023-04-25T15:56:31.015Z,5.00
2023-04-25T16:01:33.477Z,1.63
2023-04-25T16:06:35.562Z,6.28
2023-04-25T16:11:37.387Z,2.28
2023-04-25T16:16:39.307Z,3.22
2023-04-25T16:21:42.338Z,1.40
2023-04-25T16:26:44.717Z,4.95
2023-04-25T16:31:47.753Z,10.95
2023-04-25T16:36:49.937Z,5.93
2023-04-25T16:41:52.282Z,6.35
2023-04-25T16:46:54.078Z,6.20
2023-04-25T16:51:56.223Z,2.33
2023-04-25T16:56:58.475Z,0.98
2023-04-25T17:02:00.388Z,2.53
2023-04-25T17:07:02.474Z,6.15
2023-04-25T17:12:04.866Z,3.28
2023-04-25T17:17:07.224Z,4.57
2023-04-25T17:22:09.423Z,3.45
2023-04-25T17:27:11.504Z,2.25
2023-04-25T17:32:15.071Z,1.33
2023-04-25T17:37:19.148Z,1.67
2023-04-25T17:42:20.942Z,2.38
2023-04-25T17:47:23.633Z,8.30
2023-04-25T17:52:26.108Z,2.20
2023-04-25T17:57:28.009Z,5.60
2023-04-25T18:02:29.961Z,2.72
2023-04-25T18:07:31.822Z,2.05
2023-04-25T18:12:34.738Z,3.13
2023-04-25T18:17:43.147Z,1.40
2023-04-25T18:22:48.076Z,6.35
2023-04-25T18:27:51.207Z,3.45
2023-04-25T18:32:53.241Z,7.35
2023-04-25T18:37:55.103Z,4.65
2023-04-25T18:42:56.990Z,6.90
2023-04-25T18:48:01.802Z,6.65
2023-04-25T18:53:04.302Z,6.50
2023-04-25T18:58:07.949Z,9.02
2023-04-25T19:03:10.034Z,12.93
2023-04-25T19:08:11.986Z,5.38
2023-04-25T19:13:14.111Z,6.38
2023-04-25T19:18:16.012Z,4.05
2023-04-25T19:23:17.871Z,9.18
2023-04-25T19:28:19.801Z,10.95
2023-04-25T19:33:21.908Z,13.27
2023-04-25T19:38:23.742Z,7.57
2023-04-25T19:43:25.512Z,12.60
2023-04-25T19:48:27.637Z,10.55
2023-04-25T19:53:29.432Z,9.52
2023-04-25T19:58:31.775Z,6.28
2023-04-25T20:03:33.665Z,10.95
2023-04-25T20:08:36.657Z,8.48
2023-04-25T20:13:38.525Z,11.05
2023-04-25T20:18:40.455Z,10.23
2023-04-25T20:23:44.163Z,8.45
2023-04-25T20:28:46.516Z,11.75
2023-04-25T20:33:48.355Z,12.80
2023-04-25T20:38:50.352Z,11.88
2023-04-25T20:43:53.593Z,11.10
2023-04-25T20:48:55.379Z,13.77
2023-04-25T20:53:57.659Z,14.73
2023-04-25T20:58:59.516Z,12.55
2023-04-25T21:04:01.881Z,10.25
2023-04-25T21:09:04.985Z,14.18
2023-04-25T21:14:07.654Z,9.73
2023-04-25T21:19:09.770Z,4.30
2023-04-25T21:24:14.406Z,9.07
2023-04-25T21:29:16.194Z,7.10
2023-04-25T21:34:18.365Z,7.32
2023-04-25T21:39:20.193Z,11.98
2023-04-25T21:44:22.021Z,5.93
2023-04-25T21:49:29.562Z,3.05
2023-04-25T21:54:32.026Z,8.30
2023-04-25T21:59:36.160Z,2.88
2023-04-25T22:04:38.140Z,6.20
2023-04-25T22:09:51.295Z,16.58
2023-04-25T22:14:57.632Z,3.70
2023-04-25T22:19:59.752Z,3.85
2023-04-25T22:25:01.831Z,3.72
2023-04-25T22:30:04.077Z,8.18
2023-04-25T22:35:07.168Z,5.07
2023-04-25T22:40:09.474Z,2.33
2023-04-25T22:45:12.481Z,2.63
2023-04-25T22:50:17.163Z,3.50
2023-04-25T22:55:19.099Z,4.88
2023-04-25T23:00:21.973Z,4.25
2023-04-25T23:05:24.884Z,3.42
2023-04-25T23:10:28.667Z,3.97
2023-04-25T23:15:33.535Z,3.75
2023-04-25T23:20:35.323Z,4.22
2023-04-25T23:25:40.527Z,2.80
2023-04-25T23:30:42.346Z,3.25
2023-04-25T23:35:44.257Z,1.42
2023-04-25T23:40:46.247Z,1.42
2023-04-25T23:45:48.061Z,3.70
2023-04-25T23:50:49.875Z,2.53
2023-04-25T23:55:51.645Z,1.83
